Algoma Strongfield — CFJ8305 — position and weather

sailwx.info

Track history (hours):
 
Tides and Currents Weather Stations Pressure Air Temp Water Temp Dewpoint Dewpoint Depression Visibility Wind Speed Wind Dir Waves Ship Positions

Algoma Strongfield

Last reported at 2017-Sep-17 15:07 UTC. Time now 2017-Sep-19 22:18 UTC.
Position N 45°33' W 073°32'.

Length 226 m; draft 8.1 m.

Type: Ship. MMSI: 316014060.

Date/timePositionNaut miles runAvg speedWind from/ knotsBaromVisibWave heightAir tempDewpointWater temp
2017-Sep-17 15:07N 45°33' W 073°32'3 6.9
2017-Sep-17 14:45N 45°30' W 073°31'1 0.9
2017-Sep-17 14:04N 45°30' W 073°31'0 0.7
2017-Sep-17 14:01N 45°30' W 073°31'1 1.8
2017-Sep-17 13:29N 45°29' W 073°31'2 5.1
2017-Sep-17 13:00N 45°26' W 073°30'3 5.2
2017-Sep-17 12:30N 45°24' W 073°33'1 1.7
2017-Sep-17 12:00N 45°24' W 073°34'0 0.6
2017-Sep-17 11:30N 45°24' W 073°34'2 3.2
2017-Sep-17 11:00N 45°24' W 073°37'3 5.5
2017-Sep-17 10:30N 45°25' W 073°40'3 5.7
2017-Sep-17 10:00N 45°24' W 073°44'510.6
2017-Sep-17 09:30N 45°21' W 073°51'4 7.8
2017-Sep-17 09:00N 45°19' W 073°55'0 0.3
2017-Sep-17 08:30N 45°19' W 073°55'1 1.4
2017-Sep-17 08:00N 45°18' W 073°56'0 0.3
2017-Sep-17 07:30N 45°18' W 073°56'1 2.0
2017-Sep-17 07:00N 45°17' W 073°56'3 5.3
2017-Sep-17 06:30N 45°15' W 073°58'6 7.2
2017-Sep-17 05:40N 45°14' W 074°07'2 9.2
2017-Sep-17 05:30N 45°14' W 074°09'  
2017-Sep-14 00:00N 45°13' W 083°02'713.7
2017-Sep-13 23:30N 45°19' W 083°05'713.5
2017-Sep-13 23:00N 45°25' W 083°11'713.6
2017-Sep-13 22:30N 45°29' W 083°18'713.5
2017-Sep-13 22:00N 45°35' W 083°24'713.6
2017-Sep-13 21:30N 45°40' W 083°31'713.6
2017-Sep-13 21:00N 45°44' W 083°37'713.5
2017-Sep-13 20:27N 45°50' W 083°45'4 9.7
2017-Sep-13 20:00N 45°53' W 083°49'510.9
2017-Sep-13 19:30N 45°57' W 083°54'28 8.8
2017-Sep-13 16:23N 46°22' W 084°13'11 3.6
2017-Sep-13 13:16N 46°30' W 084°24'1 2.5
2017-Sep-13 12:54N 46°30' W 084°25'2 5.2
2017-Sep-13 12:29N 46°28' W 084°28'4 8.5
2017-Sep-13 12:00N 46°28' W 084°33'  
2017-Sep-08 10:45N 45°46' W 083°43'414.0
2017-Sep-08 10:30N 45°43' W 083°40'714.0
2017-Sep-08 10:00N 45°38' W 083°35'714.2
2017-Sep-08 09:30N 45°32' W 083°29'714.1
2017-Sep-08 09:00N 45°26' W 083°23'  
Track history (hours):
 
Tides and Currents Weather Stations Pressure Air Temp Water Temp Dewpoint Dewpoint Depression Visibility Wind Speed Wind Dir Waves Ship Positions

Algoma Strongfield

Last reported at 2017-Sep-17 15:07 UTC. Time now 2017-Sep-19 22:18 UTC.
Position N 45°33' W 073°32'.

Length 226 m; draft 8.1 m.

Type: Ship. MMSI: 316014060.

Date/timePositionNaut miles runAvg speedWind from/ knotsBaromVisibWave heightAir tempDewpointWater temp
2017-Sep-17 15:07N 45°33' W 073°32'3 6.9
2017-Sep-17 14:45N 45°30' W 073°31'1 0.9
2017-Sep-17 14:04N 45°30' W 073°31'0 0.7
2017-Sep-17 14:01N 45°30' W 073°31'1 1.8
2017-Sep-17 13:29N 45°29' W 073°31'2 5.1
2017-Sep-17 13:00N 45°26' W 073°30'3 5.2
2017-Sep-17 12:30N 45°24' W 073°33'1 1.7
2017-Sep-17 12:00N 45°24' W 073°34'0 0.6
2017-Sep-17 11:30N 45°24' W 073°34'2 3.2
2017-Sep-17 11:00N 45°24' W 073°37'3 5.5
2017-Sep-17 10:30N 45°25' W 073°40'3 5.7
2017-Sep-17 10:00N 45°24' W 073°44'510.6
2017-Sep-17 09:30N 45°21' W 073°51'4 7.8
2017-Sep-17 09:00N 45°19' W 073°55'0 0.3
2017-Sep-17 08:30N 45°19' W 073°55'1 1.4
2017-Sep-17 08:00N 45°18' W 073°56'0 0.3
2017-Sep-17 07:30N 45°18' W 073°56'1 2.0
2017-Sep-17 07:00N 45°17' W 073°56'3 5.3
2017-Sep-17 06:30N 45°15' W 073°58'6 7.2
2017-Sep-17 05:40N 45°14' W 074°07'2 9.2
2017-Sep-17 05:30N 45°14' W 074°09'  
2017-Sep-14 00:00N 45°13' W 083°02'713.7
2017-Sep-13 23:30N 45°19' W 083°05'713.5
2017-Sep-13 23:00N 45°25' W 083°11'713.6
2017-Sep-13 22:30N 45°29' W 083°18'713.5
2017-Sep-13 22:00N 45°35' W 083°24'713.6
2017-Sep-13 21:30N 45°40' W 083°31'713.6
2017-Sep-13 21:00N 45°44' W 083°37'713.5
2017-Sep-13 20:27N 45°50' W 083°45'4 9.7
2017-Sep-13 20:00N 45°53' W 083°49'510.9
2017-Sep-13 19:30N 45°57' W 083°54'28 8.8
2017-Sep-13 16:23N 46°22' W 084°13'11 3.6
2017-Sep-13 13:16N 46°30' W 084°24'1 2.5
2017-Sep-13 12:54N 46°30' W 084°25'2 5.2
2017-Sep-13 12:29N 46°28' W 084°28'4 8.5
2017-Sep-13 12:00N 46°28' W 084°33'  
2017-Sep-08 10:45N 45°46' W 083°43'414.0
2017-Sep-08 10:30N 45°43' W 083°40'714.0
2017-Sep-08 10:00N 45°38' W 083°35'714.2
2017-Sep-08 09:30N 45°32' W 083°29'714.1
2017-Sep-08 09:00N 45°26' W 083°23'  

Dump ship's entire track history